Time;durP1;ratioP1;P1;durP2;ratioP2;P2;SDS_P1;SDS_P2;PMS_P1;PMS_P2;Temp;Humidity;BMP_temperature;BMP_pressure;BME280_temperature;BME280_humidity;BME280_pressure;Samples;Min_cycle;Max_cycle;Signal;HPM_P1;HPM_P2
2022/11/24 00:01:15;;;;;;;0.10;0.10;;;;;;;-2.08;73.54;99503.94;6181012;23;20396;-66
2022/11/24 00:03:41;;;;;;;0.10;0.10;;;;;;;-2.11;73.67;99507.84;6181794;23;20021;-67
2022/11/24 00:06:10;;;;;;;0.10;0.10;;;;;;;-2.08;73.80;99496.75;6183938;23;20564;-66
2022/11/24 00:08:38;;;;;;;0.10;0.10;;;;;;;-2.04;73.27;99503.34;6146093;23;20430;-67
2022/11/24 00:11:05;;;;;;;0.10;0.10;;;;;;;-2.09;72.92;99510.34;6173228;23;20020;-67
2022/11/24 00:13:33;;;;;;;0.10;0.10;;;;;;;-2.19;73.24;99513.38;6147230;23;20021;-67
2022/11/24 00:16:09;;;;;;;0.10;0.10;;;;;;;-2.12;73.13;99513.41;6150076;23;20025;-67
2022/11/24 00:18:35;;;;;;;0.10;0.10;;;;;;;-2.04;73.09;99507.88;6178716;23;20449;-67
2022/11/24 00:21:01;;;;;;;0.10;0.10;;;;;;;-2.02;73.13;99512.03;6185222;23;20017;-67
2022/11/24 00:23:27;;;;;;;0.10;0.10;;;;;;;-2.05;73.19;99515.09;6173141;23;20028;-66
2022/11/24 00:25:53;;;;;;;0.10;0.10;;;;;;;-2.04;73.32;99527.47;6174842;23;20070;-67
2022/11/24 00:28:19;;;;;;;0.10;0.10;;;;;;;-2.01;73.28;99526.25;6180982;23;20071;-67
2022/11/24 00:30:46;;;;;;;0.10;0.10;;;;;;;-2.03;73.25;99533.66;6184082;23;20415;-66
2022/11/24 00:33:12;;;;;;;0.10;0.10;;;;;;;-2.03;73.56;99531.81;6172618;23;20027;-66
2022/11/24 00:35:38;;;;;;;0.10;0.10;;;;;;;-1.95;73.23;99532.66;6143018;23;20125;-66
2022/11/24 00:38:04;;;;;;;0.10;0.10;;;;;;;-2.03;73.14;99530.97;6171008;23;20056;-66
2022/11/24 00:40:30;;;;;;;0.10;0.10;;;;;;;-2.08;73.02;99528.06;6182365;23;20044;-68
2022/11/24 00:42:56;;;;;;;0.10;0.10;;;;;;;-2.18;72.52;99537.31;6183792;23;20456;-67
2022/11/24 00:45:22;;;;;;;0.10;0.10;;;;;;;-2.29;72.73;99535.16;6181635;23;20028;-67
2022/11/24 00:47:50;;;;;;;0.10;0.10;;;;;;;-2.45;72.82;99552.34;6183094;23;20296;-66
2022/11/24 00:50:16;;;;;;;0.10;0.10;;;;;;;-2.51;73.37;99537.91;6159983;23;20020;-67
2022/11/24 00:52:42;;;;;;;0.10;0.10;;;;;;;-2.43;73.05;99543.13;6185262;23;20032;-67
2022/11/24 00:55:08;;;;;;;0.10;0.10;;;;;;;-2.43;72.89;99547.63;6175220;23;20017;-67
2022/11/24 00:57:34;;;;;;;0.10;0.10;;;;;;;-2.44;73.02;99549.50;6151352;23;20469;-67
2022/11/24 01:00:00;;;;;;;0.10;0.10;;;;;;;-2.44;72.86;99565.56;6173454;23;20025;-66
2022/11/24 01:02:26;;;;;;;0.10;0.10;;;;;;;-2.47;73.09;99562.44;6145156;23;20095;-66
2022/11/24 01:04:53;;;;;;;0.10;0.10;;;;;;;-2.40;73.19;99557.97;6155104;23;20047;-67
2022/11/24 01:07:19;;;;;;;0.10;0.10;;;;;;;-2.39;72.76;99561.47;6153925;23;20644;-66
2022/11/24 01:09:45;;;;;;;0.10;0.10;;;;;;;-2.31;72.69;99564.00;6154710;23;20021;-67
2022/11/24 01:12:11;;;;;;;0.10;0.10;;;;;;;-2.27;72.46;99559.91;6172516;23;20071;-67
2022/11/24 01:14:38;;;;;;;0.10;0.10;;;;;;;-2.26;72.58;99558.88;6174703;23;20096;-67
2022/11/24 01:17:04;;;;;;;0.10;0.10;;;;;;;-2.30;72.37;99566.47;6183761;23;20447;-67
2022/11/24 01:19:30;;;;;;;0.10;0.10;;;;;;;-2.42;72.08;99573.38;6187289;23;20461;-66
2022/11/24 01:21:57;;;;;;;0.10;0.10;;;;;;;-2.48;72.33;99572.34;6184545;23;20495;-66
2022/11/24 01:24:24;;;;;;;0.10;0.10;;;;;;;-2.53;72.62;99576.63;6170047;23;20051;-67
2022/11/24 01:26:49;;;;;;;0.10;0.10;;;;;;;-2.51;72.58;99582.59;6181970;23;20021;-67
2022/11/24 01:29:16;;;;;;;0.10;0.10;;;;;;;-2.47;72.30;99583.88;6171670;23;20021;-67
2022/11/24 01:31:41;;;;;;;0.10;0.10;;;;;;;-2.49;72.10;99588.59;6148897;23;20024;-67
2022/11/24 01:34:07;;;;;;;0.10;0.10;;;;;;;-2.52;72.23;99584.44;6174563;23;20056;-66
2022/11/24 01:36:35;;;;;;;0.10;0.10;;;;;;;-2.51;72.20;99585.28;6174076;23;20049;-66
2022/11/24 01:39:02;;;;;;;0.10;0.10;;;;;;;-2.56;72.43;99583.19;6183926;23;20032;-66
2022/11/24 01:41:28;;;;;;;0.10;0.10;;;;;;;-2.61;72.53;99590.97;6152387;23;20310;-65
2022/11/24 01:43:56;;;;;;;0.10;0.10;;;;;;;-2.66;72.65;99586.19;6187241;23;20032;-67
2022/11/24 01:46:27;;;;;;;0.10;0.10;;;;;;;-2.61;72.75;99591.78;6190252;23;20020;-67
2022/11/24 01:49:00;;;;;;;0.10;0.10;;;;;;;-2.61;72.63;99594.47;6177980;23;20118;-66
2022/11/24 01:51:29;;;;;;;0.10;0.10;;;;;;;-2.57;73.07;99586.88;6160919;23;20017;-66
2022/11/24 01:53:59;;;;;;;0.10;0.10;;;;;;;-2.61;73.00;99589.09;6185515;23;20025;-66
2022/11/24 01:56:27;;;;;;;0.10;0.10;;;;;;;-2.62;73.00;99587.47;6160807;23;20017;-66
2022/11/24 01:58:58;;;;;;;0.10;0.10;;;;;;;-2.59;73.13;99595.09;6149020;23;20103;-66
2022/11/24 02:01:24;;;;;;;0.10;0.10;;;;;;;-2.63;73.52;99599.19;6157488;23;20024;-67
2022/11/24 02:03:51;;;;;;;0.10;0.10;;;;;;;-2.54;73.68;99597.19;6158168;23;20261;-67
2022/11/24 02:06:22;;;;;;;0.10;0.10;;;;;;;-2.52;73.46;99597.84;6159964;23;20024;-67
2022/11/24 02:08:53;;;;;;;0.10;0.10;;;;;;;-2.52;73.41;99607.72;6124249;23;20414;-67
2022/11/24 02:11:21;;;;;;;0.10;0.10;;;;;;;-2.54;73.28;99609.78;6147001;23;20115;-66
2022/11/24 02:13:52;;;;;;;0.10;0.10;;;;;;;-2.60;73.68;99614.06;6173377;23;20025;-67
2022/11/24 02:16:18;;;;;;;0.10;0.10;;;;;;;-2.68;74.00;99615.00;6175029;23;20024;-66
2022/11/24 02:18:44;;;;;;;0.10;0.10;;;;;;;-2.62;74.07;99624.13;6182166;23;20045;-67
2022/11/24 02:21:12;;;;;;;0.10;0.10;;;;;;;-2.60;74.28;99619.41;6186803;23;20021;-67
2022/11/24 02:23:46;;;;;;;0.10;0.10;;;;;;;-2.61;74.03;99625.78;6185024;23;20032;-67
2022/11/24 02:26:20;;;;;;;0.10;0.10;;;;;;;-2.62;73.87;99632.16;6186712;23;20045;-67
2022/11/24 02:28:48;;;;;;;0.10;0.10;;;;;;;-2.73;74.21;99628.97;6158977;23;20020;-66
2022/11/24 02:31:14;;;;;;;0.10;0.10;;;;;;;-2.64;74.13;99642.22;6176654;23;20017;-67
2022/11/24 02:33:41;;;;;;;0.10;0.10;;;;;;;-2.57;74.11;99633.25;6175548;23;20444;-67
2022/11/24 02:36:07;;;;;;;0.10;0.10;;;;;;;-2.54;73.62;99637.38;6186173;23;20024;-67
2022/11/24 02:38:34;;;;;;;0.10;0.10;;;;;;;-2.54;73.89;99641.91;6120218;23;20094;-67
2022/11/24 02:41:05;;;;;;;0.10;0.10;;;;;;;-2.59;74.00;99645.16;6171036;23;20036;-67
2022/11/24 02:43:35;;;;;;;0.10;0.10;;;;;;;-2.61;74.00;99653.38;6172998;23;20095;-65
2022/11/24 02:46:03;;;;;;;0.10;0.10;;;;;;;-2.65;74.17;99640.59;6148751;23;20111;-67
2022/11/24 02:48:29;;;;;;;;;;;;;;;-2.53;74.44;99638.22;6175046;23;20025;-66
2022/11/24 02:50:55;;;;;;;0.10;0.10;;;;;;;-2.56;74.01;99642.09;6149089;23;20012;-67
2022/11/24 02:53:21;;;;;;;0.10;0.10;;;;;;;-2.67;74.20;99631.88;6175657;23;20041;-67
2022/11/24 02:55:47;;;;;;;0.10;0.10;;;;;;;-2.74;74.57;99630.00;6182414;23;20123;-67
2022/11/24 02:58:13;;;;;;;0.10;0.10;;;;;;;-2.68;74.72;99632.91;6185388;23;20025;-67
2022/11/24 03:00:39;;;;;;;0.10;0.10;;;;;;;-2.77;74.85;99638.41;6172901;23;20610;-67
2022/11/24 03:03:07;;;;;;;0.10;0.10;;;;;;;-2.80;74.30;99633.44;6172506;23;21007;-67
2022/11/24 03:05:33;;;;;;;0.10;0.10;;;;;;;-2.87;74.21;99636.06;6181805;23;20024;-67
2022/11/24 03:07:59;;;;;;;0.10;0.10;;;;;;;-2.88;74.38;99645.09;6181775;23;20474;-66
2022/11/24 03:10:25;;;;;;;0.10;0.10;;;;;;;-2.87;74.22;99653.94;6149037;23;20023;-66
2022/11/24 03:12:51;;;;;;;0.10;0.10;;;;;;;-2.88;74.73;99650.47;6175082;23;20021;-67
2022/11/24 03:15:17;;;;;;;0.10;0.10;;;;;;;-2.88;74.67;99653.13;6173121;23;20040;-67
2022/11/24 03:17:42;;;;;;;0.10;0.10;;;;;;;-2.85;74.78;99654.56;6147828;23;20456;-66
2022/11/24 03:20:11;;;;;;;0.10;0.10;;;;;;;-2.87;74.64;99657.47;6149500;23;20036;-66
2022/11/24 03:22:37;;;;;;;0.10;0.10;;;;;;;-2.89;74.92;99654.16;6177151;23;20020;-68
2022/11/24 03:25:03;;;;;;;0.10;0.10;;;;;;;-2.90;74.90;99654.31;6148934;23;20035;-70
2022/11/24 03:27:30;;;;;;;0.10;0.10;;;;;;;-2.88;75.04;99657.63;6173739;23;20368;-69
2022/11/24 03:29:56;;;;;;;0.10;0.10;;;;;;;-2.81;75.18;99661.22;6183990;23;20260;-69
2022/11/24 03:32:22;;;;;;;0.10;0.10;;;;;;;-2.87;75.00;99654.78;6173065;23;20020;-69
2022/11/24 03:34:48;;;;;;;0.10;0.10;;;;;;;-2.85;75.09;99665.28;6177158;23;20456;-69
2022/11/24 03:37:16;;;;;;;0.10;0.10;;;;;;;-2.97;75.00;99670.31;6145302;23;20025;-69
2022/11/24 03:39:42;;;;;;;0.10;0.10;;;;;;;-3.04;75.23;99666.75;6172241;23;20025;-69
2022/11/24 03:42:08;;;;;;;0.10;0.10;;;;;;;-3.08;74.57;99673.47;6177484;23;20535;-69
2022/11/24 03:44:34;;;;;;;0.10;0.10;;;;;;;-3.12;74.42;99675.72;6173869;23;20479;-69
2022/11/24 03:47:00;;;;;;;0.10;0.10;;;;;;;-3.14;74.41;99675.03;6172245;23;20468;-69
2022/11/24 03:49:25;;;;;;;0.10;0.10;;;;;;;-3.14;74.17;99675.03;6146084;23;20036;-69
2022/11/24 03:51:51;;;;;;;0.10;0.10;;;;;;;-3.23;73.94;99666.31;6176715;23;20475;-69
2022/11/24 03:54:19;;;;;;;0.10;0.10;;;;;;;-3.10;73.70;99673.69;6175932;23;20025;-69
2022/11/24 03:56:45;;;;;;;0.10;0.10;;;;;;;-3.16;73.29;99675.25;6183718;23;20016;-69
2022/11/24 03:59:11;;;;;;;0.10;0.10;;;;;;;-3.24;73.14;99674.53;6184643;23;20387;-69
2022/11/24 04:01:37;;;;;;;0.10;0.10;;;;;;;-3.32;73.32;99676.28;6186735;23;20017;-69
2022/11/24 04:04:03;;;;;;;0.10;0.10;;;;;;;-3.32;73.83;99678.97;6176113;23;20101;-69
2022/11/24 04:06:29;;;;;;;0.10;0.10;;;;;;;-3.31;73.77;99679.81;6150239;23;20183;-69
2022/11/24 04:08:55;;;;;;;0.10;0.10;;;;;;;-3.30;73.59;99682.28;6183532;23;20049;-69
2022/11/24 04:14:07;;;;;;;0.10;0.10;;;;;;;-3.26;72.87;99682.72;6173635;23;20410;-69
2022/11/24 04:16:33;;;;;;;0.10;0.10;;;;;;;-3.30;72.70;99689.47;6182132;23;20021;-69
2022/11/24 04:18:59;;;;;;;0.10;0.10;;;;;;;-3.33;72.79;99688.00;6185438;23;20365;-69
2022/11/24 04:21:25;;;;;;;0.10;0.10;;;;;;;-3.30;72.68;99690.28;6190206;23;20017;-69
2022/11/24 04:23:51;;;;;;;0.10;0.10;;;;;;;-3.30;72.48;99692.97;6182890;23;20031;-69
2022/11/24 04:26:17;;;;;;;0.10;0.10;;;;;;;-3.30;72.21;99690.28;6184833;23;20096;-68
2022/11/24 04:28:44;;;;;;;0.00;0.00;;;;;;;-3.31;72.06;99693.97;6171585;23;20048;-68
2022/11/24 04:31:10;;;;;;;0.10;0.10;;;;;;;-3.36;71.98;99695.56;6151743;23;20029;-68
2022/11/24 04:33:36;;;;;;;0.10;0.10;;;;;;;-3.35;72.08;99698.06;6130224;23;20099;-68
2022/11/24 04:36:02;;;;;;;0.10;0.10;;;;;;;-3.36;72.25;99701.75;6175385;23;20047;-69
2022/11/24 04:38:28;;;;;;;0.10;0.10;;;;;;;-3.36;72.32;99701.75;6176501;23;20051;-68
2022/11/24 04:40:54;;;;;;;0.10;0.10;;;;;;;-3.33;72.53;99708.56;6174864;23;20100;-68
2022/11/24 04:43:20;;;;;;;0.10;0.10;;;;;;;-3.31;72.51;99711.88;6146788;23;20021;-68
2022/11/24 04:45:48;;;;;;;0.10;0.10;;;;;;;-3.32;72.72;99712.91;6183107;23;20028;-69
2022/11/24 04:48:15;;;;;;;0.10;0.10;;;;;;;-3.36;72.86;99712.44;6167943;23;20032;-69
2022/11/24 04:50:41;;;;;;;0.10;0.10;;;;;;;-3.35;72.93;99714.09;6154800;23;20025;-69
2022/11/24 04:53:09;;;;;;;0.10;0.10;;;;;;;-3.38;72.75;99711.81;6171095;23;20655;-68
2022/11/24 04:55:37;;;;;;;0.10;0.10;;;;;;;-3.36;72.38;99714.28;6182356;23;20526;-69
2022/11/24 04:58:03;;;;;;;0.10;0.10;;;;;;;-3.38;72.35;99718.97;6128329;23;20033;-69
2022/11/24 05:00:29;;;;;;;0.10;0.10;;;;;;;-3.38;72.42;99727.84;6180210;23;20036;-69
2022/11/24 05:02:57;;;;;;;0.10;0.10;;;;;;;-3.42;72.35;99730.06;6166412;23;20117;-69
2022/11/24 05:05:23;;;;;;;0.10;0.10;;;;;;;-3.43;72.64;99735.59;6151802;23;20108;-72
2022/11/24 05:07:49;;;;;;;0.10;0.10;;;;;;;-3.51;72.88;99733.84;6152533;23;20017;-71
2022/11/24 05:10:33;;;;;;;0.10;0.10;;;;;;;-3.44;72.84;99748.13;6149316;23;20044;-70
2022/11/24 05:13:01;;;;;;;0.10;0.10;;;;;;;-3.44;73.00;99748.13;6152604;23;20025;-72
2022/11/24 05:15:27;;;;;;;0.10;0.10;;;;;;;-3.42;72.39;99750.63;6176186;23;20108;-67
2022/11/24 05:17:53;;;;;;;0.10;0.10;;;;;;;-3.36;72.08;99754.38;6162764;23;20072;-67
2022/11/24 05:20:21;;;;;;;0.10;0.10;;;;;;;-3.33;71.97;99757.53;6182016;23;20017;-67
2022/11/24 05:22:47;;;;;;;0.10;0.10;;;;;;;-3.45;71.76;99748.31;6166345;23;20111;-67
2022/11/24 05:25:13;;;;;;;0.10;0.10;;;;;;;-3.34;72.31;99765.75;6140331;23;20452;-67
2022/11/24 05:27:40;;;;;;;0.10;0.10;;;;;;;-3.22;72.13;99766.94;6162062;23;20056;-67
2022/11/24 05:30:07;;;;;;;0.10;0.10;;;;;;;-3.10;71.77;99769.13;6177447;23;20017;-67
2022/11/24 05:32:33;;;;;;;0.10;0.10;;;;;;;-3.11;71.58;99764.81;6181352;23;20404;-67
2022/11/24 05:35:01;;;;;;;0.10;0.10;;;;;;;-3.13;71.50;99775.69;6183186;23;20077;-67
2022/11/24 05:37:28;;;;;;;0.10;0.10;;;;;;;-3.07;71.67;99784.81;6175695;23;20461;-67
2022/11/24 05:39:54;;;;;;;0.10;0.10;;;;;;;-3.04;71.58;99781.78;6190049;23;20152;-67
2022/11/24 05:45:11;;;;;;;0.10;0.10;;;;;;;-2.99;71.60;99782.88;6188805;23;20319;-67
2022/11/24 05:47:37;;;;;;;0.10;0.10;;;;;;;-2.94;71.62;99784.19;6188303;23;20373;-67
2022/11/24 05:50:04;;;;;;;0.20;0.20;;;;;;;-3.01;71.27;99794.78;6153536;23;20095;-67
2022/11/24 05:52:32;;;;;;;0.10;0.10;;;;;;;-3.06;71.40;99792.66;6183388;23;20395;-67
2022/11/24 05:54:58;;;;;;;0.17;0.17;;;;;;;-3.09;71.63;99802.91;6172159;23;20069;-67
2022/11/24 05:57:24;;;;;;;0.20;0.20;;;;;;;-3.13;71.63;99813.13;6185417;23;20403;-67
2022/11/24 05:59:50;;;;;;;0.10;0.10;;;;;;;-3.09;71.89;99810.94;6172851;23;20029;-67
2022/11/24 06:02:16;;;;;;;0.10;0.10;;;;;;;-3.07;71.91;99819.59;6187587;23;20021;-67
2022/11/24 06:04:42;;;;;;;0.10;0.10;;;;;;;-3.05;71.66;99820.25;6186184;23;20028;-67
2022/11/24 06:07:10;;;;;;;0.10;0.10;;;;;;;-3.08;71.64;99809.91;6186149;23;20021;-67
2022/11/24 06:09:38;;;;;;;0.10;0.10;;;;;;;-3.05;71.41;99817.56;6187154;23;20013;-67
2022/11/24 06:12:08;;;;;;;0.10;0.10;;;;;;;-3.02;71.57;99818.03;6177282;23;20032;-71
2022/11/24 06:14:35;;;;;;;0.10;0.10;;;;;;;-2.94;71.72;99825.13;6176155;23;20144;-71
2022/11/24 06:17:01;;;;;;;0.10;0.10;;;;;;;-2.86;71.56;99837.59;6184355;23;20025;-71
2022/11/24 06:19:28;;;;;;;0.20;0.20;;;;;;;-3.00;71.40;99816.00;6186040;23;20021;-71
2022/11/24 06:21:54;;;;;;;0.10;0.10;;;;;;;-2.89;71.16;99838.81;6148916;23;20032;-71
2022/11/24 06:24:20;;;;;;;0.10;0.10;;;;;;;-2.93;71.20;99839.34;6149573;23;20554;-72
2022/11/24 06:26:47;;;;;;;0.10;0.10;;;;;;;-2.93;71.23;99844.72;6147731;23;20087;-71
2022/11/24 06:29:13;;;;;;;0.15;0.15;;;;;;;-2.91;71.09;99845.34;6158942;23;20013;-71
2022/11/24 06:31:39;;;;;;;0.10;0.10;;;;;;;-2.93;71.22;99848.19;6177893;23;20357;-67
2022/11/24 06:34:06;;;;;;;0.17;0.17;;;;;;;-2.88;71.18;99853.00;6187466;23;20465;-68
2022/11/24 06:36:32;;;;;;;0.20;0.20;;;;;;;-2.87;71.23;99854.66;6186496;23;20021;-67
2022/11/24 06:39:00;;;;;;;0.10;0.10;;;;;;;-2.89;70.85;99846.00;6176824;23;20393;-67
2022/11/24 06:41:26;;;;;;;;;;;;;;;-2.91;71.13;99848.84;6187055;23;20025;-67
2022/11/24 06:43:54;;;;;;;0.10;0.10;;;;;;;-2.93;71.18;99850.88;6149334;23;19927;-67
2022/11/24 06:46:20;;;;;;;0.10;0.10;;;;;;;-2.90;71.40;99852.34;6185264;23;20096;-67
2022/11/24 06:48:46;;;;;;;0.17;0.17;;;;;;;-2.89;71.26;99854.03;6100074;23;20368;-68
2022/11/24 06:51:12;;;;;;;0.38;0.10;;;;;;;-2.87;71.12;99857.34;6187018;23;20083;-68
2022/11/24 06:53:39;;;;;;;0.10;0.10;;;;;;;-2.91;71.08;99858.72;6127926;23;20017;-67
2022/11/24 06:56:08;;;;;;;0.13;0.13;;;;;;;-2.87;71.09;99860.84;6175741;23;20024;-67
2022/11/24 06:58:34;;;;;;;0.10;0.10;;;;;;;-2.87;71.02;99862.69;6176765;23;20021;-67
2022/11/24 07:01:01;;;;;;;0.10;0.10;;;;;;;-2.89;71.09;99862.03;6162361;23;20049;-70
2022/11/24 07:03:27;;;;;;;0.10;0.10;;;;;;;-2.87;71.11;99868.03;6151346;23;20539;-71
2022/11/24 07:05:56;;;;;;;0.10;0.10;;;;;;;-2.91;70.85;99872.94;6177039;23;20097;-67
2022/11/24 07:08:22;;;;;;;0.10;0.10;;;;;;;-3.03;70.42;99871.75;6160922;23;20020;-70
2022/11/24 07:10:48;;;;;;;0.10;0.10;;;;;;;-3.08;70.43;99874.13;6152240;23;20416;-71
2022/11/24 07:13:14;;;;;;;0.10;0.10;;;;;;;-3.09;70.58;99867.13;6148963;23;20474;-71
2022/11/24 07:15:40;;;;;;;0.10;0.10;;;;;;;-3.04;70.49;99867.41;6175852;23;20025;-71
2022/11/24 07:18:07;;;;;;;0.10;0.10;;;;;;;-3.14;70.34;99863.16;6135770;23;20107;-70
2022/11/24 07:20:34;;;;;;;0.20;0.20;;;;;;;-3.14;70.55;99867.66;6186433;23;20025;-71
2022/11/24 07:23:00;;;;;;;0.10;0.10;;;;;;;-3.05;70.12;99860.38;6127213;23;20025;-71
2022/11/24 07:25:27;;;;;;;0.10;0.10;;;;;;;-2.97;70.00;99862.97;6184055;23;20028;-71
2022/11/24 07:27:55;;;;;;;0.10;0.10;;;;;;;-2.98;69.67;99866.66;6156896;23;20025;-71
2022/11/24 07:30:21;;;;;;;0.10;0.10;;;;;;;-3.03;69.24;99859.19;6148096;23;20017;-71
2022/11/24 07:32:47;;;;;;;0.10;0.10;;;;;;;-3.04;69.34;99870.09;6187533;23;20025;-71
2022/11/24 07:35:14;;;;;;;0.10;0.10;;;;;;;-3.06;69.54;99862.22;6123129;23;20024;-71
2022/11/24 07:37:41;;;;;;;0.20;0.20;;;;;;;-3.04;69.14;99862.06;6174775;23;20281;-71
2022/11/24 07:40:08;;;;;;;0.10;0.10;;;;;;;-3.12;69.36;99876.34;6184271;23;20039;-71
2022/11/24 07:42:34;;;;;;;0.13;0.13;;;;;;;-3.15;69.32;99866.84;6149268;23;20021;-71
2022/11/24 07:45:00;;;;;;;0.10;0.10;;;;;;;-3.05;69.17;99858.53;6135139;23;20099;-71
2022/11/24 07:47:26;;;;;;;0.10;0.10;;;;;;;-2.93;69.30;99868.78;6187037;23;20025;-71
2022/11/24 07:49:52;;;;;;;0.10;0.10;;;;;;;-2.78;68.92;99863.41;6185645;23;20163;-71
2022/11/24 07:52:20;;;;;;;0.10;0.10;;;;;;;-2.71;68.35;99870.53;6185639;23;20032;-71
2022/11/24 07:54:46;;;;;;;0.10;0.10;;;;;;;-2.71;68.10;99869.72;6171955;23;20017;-71
2022/11/24 07:57:12;;;;;;;0.10;0.10;;;;;;;-2.83;67.89;99868.50;6124054;23;20123;-71
2022/11/24 07:59:38;;;;;;;0.10;0.10;;;;;;;-2.90;68.35;99873.78;6186639;23;20020;-71
2022/11/24 08:02:04;;;;;;;0.20;0.20;;;;;;;-2.88;67.97;99874.41;6147655;23;20049;-71
2022/11/24 08:04:30;;;;;;;0.10;0.10;;;;;;;-2.92;68.29;99870.44;6122153;23;20302;-71
2022/11/24 08:06:56;;;;;;;0.10;0.10;;;;;;;-2.99;68.37;99876.53;6157248;23;20043;-71
2022/11/24 08:09:24;;;;;;;0.10;0.10;;;;;;;-3.01;68.52;99873.19;6170186;23;20068;-71
2022/11/24 08:11:50;;;;;;;0.20;0.20;;;;;;;-2.91;68.63;99885.50;6183275;23;20025;-71
2022/11/24 08:14:16;;;;;;;0.10;0.10;;;;;;;-2.81;68.84;99883.38;6173407;23;20021;-71
2022/11/24 08:16:42;;;;;;;0.10;0.10;;;;;;;-2.78;68.47;99883.00;6175671;23;20021;-71
2022/11/24 08:19:10;;;;;;;0.10;0.10;;;;;;;-2.70;68.54;99892.78;6150738;23;20529;-71
2022/11/24 08:21:37;;;;;;;0.20;0.20;;;;;;;-2.60;68.06;99896.00;6158087;23;20463;-71
2022/11/24 08:24:03;;;;;;;0.10;0.10;;;;;;;-2.55;67.57;99899.97;6173094;23;20060;-72
2022/11/24 08:26:31;;;;;;;0.10;0.10;;;;;;;-2.52;67.67;99897.75;6172313;23;20496;-72
2022/11/24 08:28:58;;;;;;;0.10;0.10;;;;;;;-2.48;67.57;99904.41;6145506;23;20021;-71
2022/11/24 08:31:31;;;;;;;0.10;0.10;;;;;;;-2.44;67.48;99912.88;6125688;23;20027;-71
2022/11/24 08:33:57;;;;;;;0.20;0.20;;;;;;;-2.40;67.44;99922.22;6148518;23;20475;-71
2022/11/24 08:36:23;;;;;;;0.10;0.10;;;;;;;-2.34;66.44;99934.84;6148026;23;20035;-71
2022/11/24 08:38:53;;;;;;;0.10;0.10;;;;;;;-2.32;66.47;99929.31;6173630;23;20024;-71
2022/11/24 08:41:20;;;;;;;0.10;0.10;;;;;;;-2.36;66.27;99926.19;6184678;23;20021;-71
2022/11/24 08:43:49;;;;;;;0.10;0.10;;;;;;;-2.41;66.24;99933.94;6159288;23;20025;-71
2022/11/24 08:46:17;;;;;;;0.10;0.10;;;;;;;-2.45;66.35;99938.00;6158240;23;20104;-71
2022/11/24 08:48:47;;;;;;;0.22;0.22;;;;;;;-2.49;66.10;99939.41;6177312;23;20079;-71
2022/11/24 08:51:15;;;;;;;0.10;0.10;;;;;;;-2.48;66.36;99931.19;6174427;23;20454;-71
2022/11/24 08:53:42;;;;;;;0.15;0.15;;;;;;;-2.34;66.27;99942.88;6184019;23;20032;-72
2022/11/24 08:56:12;;;;;;;0.53;0.30;;;;;;;-2.34;66.11;99945.56;6185526;23;20021;-71
2022/11/24 08:58:39;;;;;;;0.10;0.10;;;;;;;-2.26;66.49;99949.16;6184274;23;20028;-71
2022/11/24 09:01:08;;;;;;;0.10;0.10;;;;;;;-2.24;66.15;99956.00;6175718;23;20017;-71
2022/11/24 09:03:34;;;;;;;0.10;0.10;;;;;;;-2.22;66.15;99950.47;6147198;23;20111;-71
2022/11/24 09:06:01;;;;;;;0.10;0.10;;;;;;;-2.24;66.11;99956.00;6159496;23;20083;-71
2022/11/24 09:08:28;;;;;;;0.20;0.20;;;;;;;-2.25;66.40;99964.22;6150450;23;20027;-71
2022/11/24 09:10:58;;;;;;;0.10;0.10;;;;;;;-2.29;66.37;99961.09;6149617;23;20647;-71
2022/11/24 09:13:24;;;;;;;0.10;0.10;;;;;;;-2.40;66.22;99967.75;6158117;23;20071;-71
2022/11/24 09:15:50;;;;;;;0.10;0.10;;;;;;;-2.43;66.72;99968.09;6158790;23;20021;-71
2022/11/24 09:18:18;;;;;;;0.10;0.10;;;;;;;-2.44;66.74;99963.75;6147113;23;20032;-71
2022/11/24 09:20:44;;;;;;;0.10;0.10;;;;;;;-2.50;66.99;99970.69;6126049;23;20028;-71
2022/11/24 09:23:10;;;;;;;0.10;0.10;;;;;;;-2.47;67.33;99961.47;6149176;23;20278;-71
2022/11/24 09:25:36;;;;;;;0.10;0.10;;;;;;;-2.39;67.05;99961.38;6185633;23;20021;-70
2022/11/24 09:28:02;;;;;;;0.10;0.10;;;;;;;-2.49;66.86;99958.13;6175127;23;20365;-71
2022/11/24 09:30:28;;;;;;;0.10;0.10;;;;;;;-2.47;67.51;99972.16;6159810;23;20032;-68
2022/11/24 09:32:55;;;;;;;0.10;0.10;;;;;;;-2.51;67.22;99958.31;6183757;23;20076;-67
2022/11/24 09:35:23;;;;;;;0.10;0.10;;;;;;;-2.55;67.98;99964.25;6145466;23;20263;-67
2022/11/24 09:37:50;;;;;;;0.10;0.10;;;;;;;-2.51;67.85;99960.19;6184007;23;20206;-67
2022/11/24 09:40:16;;;;;;;0.10;0.10;;;;;;;-2.42;67.27;99959.03;6159441;23;20463;-67
2022/11/24 09:42:53;;;;;;;0.20;0.20;;;;;;;-2.42;67.17;99959.03;6148854;23;20032;-67
2022/11/24 09:45:41;;;;;;;0.10;0.10;;;;;;;-2.48;66.93;99960.66;6185562;23;20454;-68
2022/11/24 09:48:12;;;;;;;0.20;0.20;;;;;;;-2.62;66.99;99954.25;6132453;23;20778;-67
2022/11/24 09:50:44;;;;;;;0.10;0.10;;;;;;;-2.69;67.17;99963.19;6156784;23;20044;-67
2022/11/24 09:53:17;;;;;;;0.15;0.15;;;;;;;-2.72;67.59;99956.41;6162089;23;20113;-67
2022/11/24 09:55:47;;;;;;;0.10;0.10;;;;;;;-2.63;67.49;99962.50;6151528;23;20044;-67
2022/11/24 09:58:39;;;;;;;0.10;0.10;;;;;;;-2.67;67.54;99956.66;6188581;23;20021;-67
2022/11/24 10:01:14;;;;;;;0.10;0.10;;;;;;;-2.64;67.56;99958.97;6188557;23;20077;-67
2022/11/24 10:03:42;;;;;;;0.10;0.10;;;;;;;-2.55;67.23;99957.03;6123988;23;20407;-70
2022/11/24 10:06:26;;;;;;;0.10;0.10;;;;;;;-2.62;67.35;99964.16;6185408;23;20033;-71
2022/11/24 10:09:23;;;;;;;0.10;0.10;;;;;;;-2.67;67.09;99970.06;6185258;23;20100;-71
2022/11/24 10:12:00;;;;;;;0.10;0.10;;;;;;;-2.66;67.62;99966.34;6150530;23;20342;-71
2022/11/24 10:14:41;;;;;;;;;;;;;;;-2.60;67.12;99970.97;6149385;23;20020;-67
2022/11/24 10:17:16;;;;;;;0.10;0.10;;;;;;;-2.64;67.11;99977.72;6159473;23;19920;-67
2022/11/24 10:19:48;;;;;;;0.10;0.10;;;;;;;-2.65;67.78;99969.88;6150442;23;20289;-67
2022/11/24 10:22:31;;;;;;;0.10;0.10;;;;;;;-2.75;68.46;99978.16;6178268;23;20029;-67
2022/11/24 10:25:11;;;;;;;0.10;0.10;;;;;;;-2.76;68.96;99974.66;6151296;23;20073;-67
2022/11/24 10:27:41;;;;;;;0.10;0.10;;;;;;;-2.81;68.63;99976.22;6161709;23;20530;-70
2022/11/24 10:30:14;;;;;;;0.20;0.20;;;;;;;-2.92;69.37;99986.34;6184530;23;20041;-71
2022/11/24 10:32:45;;;;;;;0.15;0.15;;;;;;;-2.90;69.42;99980.81;6127686;23;20056;-71
2022/11/24 10:35:16;;;;;;;0.10;0.10;;;;;;;-2.87;69.39;99983.97;6178332;23;20071;-71
2022/11/24 10:37:54;;;;;;;0.10;0.10;;;;;;;-2.86;69.47;99982.97;6187208;23;20079;-71
2022/11/24 10:40:31;;;;;;;0.10;0.10;;;;;;;-2.86;69.31;99977.59;6123644;23;20021;-71
2022/11/24 10:42:57;;;;;;;0.10;0.10;;;;;;;-2.83;69.35;99983.59;6128491;23;20075;-71
2022/11/24 10:45:25;;;;;;;0.10;0.10;;;;;;;-2.86;69.21;99982.13;6150183;23;20407;-71
2022/11/24 10:47:51;;;;;;;0.13;0.13;;;;;;;-2.88;69.17;99986.81;6152859;23;20027;-71
2022/11/24 10:50:21;;;;;;;0.10;0.10;;;;;;;-2.92;69.10;99988.19;6178606;23;20040;-71
2022/11/24 10:52:59;;;;;;;0.10;0.10;;;;;;;-3.01;69.56;99992.81;6187789;23;20051;-71
2022/11/24 10:55:25;;;;;;;;;;;;;;;-3.14;70.04;99988.88;6185372;23;20528;-71
2022/11/24 10:57:51;;;;;;;0.10;0.10;;;;;;;-3.18;70.07;99994.78;6177877;23;19948;-71
2022/11/24 11:00:31;;;;;;;0.13;0.13;;;;;;;-3.19;70.35;99987.75;6177950;23;20067;-71
2022/11/24 11:03:16;;;;;;;0.10;0.10;;;;;;;-3.25;70.25;99991.16;6186792;23;20029;-71
2022/11/24 11:05:46;;;;;;;0.10;0.10;;;;;;;-3.17;70.40;99999.09;6149133;23;20372;-71
2022/11/24 11:08:28;;;;;;;0.10;0.10;;;;;;;-3.10;70.53;100001.91;6186648;23;20097;-71
2022/11/24 11:11:15;;;;;;;0.10;0.10;;;;;;;-3.02;70.26;100002.66;6185039;23;20336;-71
2022/11/24 11:13:51;;;;;;;;;;;;;;;-3.06;70.22;100009.38;6187172;23;20365;-71
2022/11/24 11:16:32;;;;;;;0.20;0.20;;;;;;;-3.10;69.82;100010.78;6186568;23;19966;-71
2022/11/24 11:19:00;;;;;;;0.10;0.10;;;;;;;-3.17;69.69;100015.16;6187479;23;20029;-71
2022/11/24 11:21:31;;;;;;;0.20;0.20;;;;;;;-3.19;69.65;100019.84;6178758;23;20021;-71
2022/11/24 11:24:01;;;;;;;0.10;0.10;;;;;;;-3.22;69.60;100010.34;6150719;23;20024;-71
2022/11/24 11:26:36;;;;;;;0.17;0.17;;;;;;;-3.20;69.67;100012.84;6150221;23;20167;-71
2022/11/24 11:29:13;;;;;;;0.10;0.10;;;;;;;-3.22;69.67;100006.84;6176991;23;20021;-71
2022/11/24 11:31:40;;;;;;;0.15;0.15;;;;;;;-3.14;69.61;100002.25;6173609;23;20017;-71
2022/11/24 11:34:13;;;;;;;0.10;0.10;;;;;;;-3.03;69.84;100005.53;6172727;23;20031;-71
2022/11/24 11:36:43;;;;;;;0.10;0.10;;;;;;;-2.93;69.57;100002.59;6175277;23;20364;-71
2022/11/24 11:39:21;;;;;;;0.10;0.10;;;;;;;-2.96;69.43;100002.97;6157568;23;20033;-71
2022/11/24 11:41:50;;;;;;;0.10;0.10;;;;;;;-2.99;69.46;100007.63;6186613;23;20055;-71
2022/11/24 11:44:29;;;;;;;0.17;0.17;;;;;;;-3.03;68.99;100008.22;6134852;23;20029;-72